Time;durP1;ratioP1;P1;durP2;ratioP2;P2;SDS_P1;SDS_P2;PMS_P1;PMS_P2;Temp;Humidity;BMP_temperature;BMP_pressure;BME280_temperature;BME280_humidity;BME280_pressure;Samples;Min_cycle;Max_cycle;Signal;HPM_P1;HPM_P2
2021/06/11 00:00:26;;;;;;;14.20;13.00;;;16.50;99.90;;;;;;5012653;28;20294;-72
2021/06/11 00:02:52;;;;;;;14.87;13.57;;;16.50;99.90;;;;;;5014066;28;20249;-73
2021/06/11 00:05:17;;;;;;;15.40;13.87;;;16.50;99.90;;;;;;5013082;28;20644;-72
2021/06/11 00:07:43;;;;;;;14.67;13.47;;;16.50;99.90;;;;;;5013036;28;20182;-72
2021/06/11 00:10:12;;;;;;;13.90;12.70;;;16.50;99.90;;;;;;5013607;28;20178;-71
2021/06/11 00:12:39;;;;;;;13.97;12.77;;;16.40;99.90;;;;;;5013444;28;20198;-73
2021/06/11 00:15:07;;;;;;;13.43;12.40;;;16.40;99.90;;;;;;5013504;28;20418;-71
2021/06/11 00:17:33;;;;;;;14.60;13.40;;;16.50;99.90;;;;;;5013141;28;20452;-72
2021/06/11 00:19:58;;;;;;;15.20;14.00;;;16.50;99.90;;;;;;5013400;28;20461;-72
2021/06/11 00:22:24;;;;;;;15.13;13.73;;;16.50;99.90;;;;;;5013349;28;20626;-72
2021/06/11 00:24:49;;;;;;;14.60;13.40;;;16.40;99.90;;;;;;5013486;28;20674;-71
2021/06/11 00:27:15;;;;;;;15.30;14.03;;;16.40;99.90;;;;;;5012758;28;20629;-72
2021/06/11 00:29:40;;;;;;;15.13;13.93;;;16.40;99.90;;;;;;5013230;28;20177;-73
2021/06/11 00:32:06;;;;;;;16.20;14.80;;;16.40;99.90;;;;;;5013331;28;20191;-71
2021/06/11 00:34:32;;;;;;;14.70;13.40;;;16.30;99.90;;;;;;5013020;28;20736;-71
2021/06/11 00:36:57;;;;;;;14.97;13.73;;;16.30;99.90;;;;;;5013198;28;20422;-72
2021/06/11 00:39:23;;;;;;;15.63;14.30;;;16.30;99.90;;;;;;5012533;28;20191;-71
2021/06/11 00:41:48;;;;;;;14.40;13.20;;;16.40;99.90;;;;;;5012909;28;20210;-72
2021/06/11 00:44:14;;;;;;;14.53;13.30;;;16.40;99.90;;;;;;5012842;28;20631;-71
2021/06/11 00:46:40;;;;;;;14.70;13.40;;;16.40;99.90;;;;;;5013202;28;20167;-72
2021/06/11 00:49:05;;;;;;;15.53;14.23;;;16.50;99.90;;;;;;5012228;28;20937;-71
2021/06/11 00:51:31;;;;;;;15.03;13.60;;;16.40;99.90;;;;;;5012838;28;20256;-72
2021/06/11 00:53:57;;;;;;;14.97;13.77;;;16.40;99.90;;;;;;5012928;28;20690;-72
2021/06/11 00:56:23;;;;;;;16.50;15.20;;;16.40;99.90;;;;;;5012756;28;20178;-73
2021/06/11 00:58:48;;;;;;;16.17;14.77;;;16.40;99.90;;;;;;5011988;28;20167;-71
2021/06/11 01:01:14;;;;;;;15.83;14.53;;;16.40;99.90;;;;;;5012729;28;20284;-72
2021/06/11 01:03:40;;;;;;;15.10;13.90;;;16.30;99.90;;;;;;5012651;28;20171;-71
2021/06/11 01:06:06;;;;;;;14.60;13.30;;;16.30;99.90;;;;;;5011333;28;20182;-71
2021/06/11 01:08:32;;;;;;;14.00;12.80;;;16.30;99.90;;;;;;5011693;28;20437;-71
2021/06/11 01:10:58;;;;;;;17.00;15.53;;;16.30;99.90;;;;;;5012391;28;20442;-71
2021/06/11 01:13:25;;;;;;;17.07;15.60;;;16.20;99.90;;;;;;5012373;28;20174;-71
2021/06/11 01:15:51;;;;;;;16.03;14.60;;;16.20;99.90;;;;;;5012495;28;20505;-72
2021/06/11 01:18:19;;;;;;;17.60;16.10;;;16.10;99.90;;;;;;5006070;28;20517;-72
2021/06/11 01:20:44;;;;;;;17.00;15.50;;;16.10;99.90;;;;;;4992425;28;20490;-73
2021/06/11 01:23:38;;;;;;;15.83;14.53;;;16.20;99.90;;;;;;4992723;28;20494;-72
2021/06/11 01:26:10;;;;;;;15.97;14.53;;;16.20;99.90;;;;;;4992637;28;20408;-71
2021/06/11 01:28:37;;;;;;;16.97;15.57;;;16.20;99.90;;;;;;4992028;28;20526;-72
2021/06/11 01:31:03;;;;;;;16.03;14.43;;;16.30;99.90;;;;;;4992370;28;20443;-72
2021/06/11 01:33:31;;;;;;;14.33;13.23;;;16.30;99.90;;;;;;4992510;28;20458;-73
2021/06/11 01:36:00;;;;;;;15.60;14.30;;;16.20;99.90;;;;;;4992484;28;20422;-72
2021/06/11 01:38:39;;;;;;;14.47;13.17;;;16.20;99.90;;;;;;4990715;28;20431;-72
2021/06/11 01:41:08;;;;;;;15.60;14.10;;;16.20;99.90;;;;;;4992130;28;20470;-72
2021/06/11 01:43:35;;;;;;;14.60;13.30;;;16.10;99.90;;;;;;4991378;28;20422;-72
2021/06/11 01:46:01;;;;;;;16.63;15.00;;;16.00;99.90;;;;;;4992309;28;20855;-71
2021/06/11 01:48:28;;;;;;;16.27;14.70;;;16.10;99.90;;;;;;4991448;28;20501;-72
2021/06/11 01:50:56;;;;;;;15.30;14.07;;;16.10;99.90;;;;;;4992058;28;20183;-71
2021/06/11 01:53:23;;;;;;;15.87;14.30;;;16.00;99.90;;;;;;4990754;28;20427;-72
2021/06/11 01:55:49;;;;;;;15.27;13.70;;;16.00;99.90;;;;;;4992274;28;20833;-72
2021/06/11 01:58:17;;;;;;;15.00;13.70;;;16.00;99.90;;;;;;4989989;28;20797;-72
2021/06/11 02:00:44;;;;;;;17.37;15.83;;;16.00;99.90;;;;;;4992190;28;20469;-72
2021/06/11 02:03:10;;;;;;;14.83;13.63;;;16.00;99.90;;;;;;4991943;28;20959;-72
2021/06/11 02:05:37;;;;;;;16.87;15.37;;;16.00;99.90;;;;;;4991929;28;20431;-73
2021/06/11 02:08:03;;;;;;;17.67;15.97;;;15.90;99.90;;;;;;4991478;28;20545;-72
2021/06/11 02:10:30;;;;;;;16.63;15.23;;;15.80;99.90;;;;;;4991671;28;20426;-72
2021/06/11 02:12:56;;;;;;;16.80;15.20;;;15.80;99.90;;;;;;4991840;28;20947;-73
2021/06/11 02:15:22;;;;;;;16.80;15.33;;;15.80;99.90;;;;;;4991775;28;20771;-71
2021/06/11 02:17:50;;;;;;;16.00;14.67;;;15.80;99.90;;;;;;4992649;28;20425;-74
2021/06/11 02:20:19;;;;;;;18.23;16.63;;;15.80;99.90;;;;;;5011023;28;20466;-71
2021/06/11 02:22:45;;;;;;;16.23;14.93;;;15.90;99.90;;;;;;5011108;28;20428;-72
2021/06/11 02:25:17;;;;;;;16.40;14.90;;;15.90;99.90;;;;;;5011269;28;20418;-72
2021/06/11 02:27:43;;;;;;;16.83;15.30;;;15.90;99.90;;;;;;5010686;28;20452;-74
2021/06/11 02:30:11;;;;;;;17.30;15.90;;;15.80;99.90;;;;;;5010603;28;20429;-72
2021/06/11 02:32:38;;;;;;;17.20;15.70;;;15.80;99.90;;;;;;5009597;28;20442;-72
2021/06/11 02:35:06;;;;;;;19.33;17.70;;;15.70;99.90;;;;;;5009689;28;20418;-72
2021/06/11 02:37:32;;;;;;;19.73;15.87;;;15.80;99.90;;;;;;5009048;28;20789;-72
2021/06/11 02:39:58;;;;;;;16.90;15.40;;;15.80;99.90;;;;;;5010956;28;20449;-72
2021/06/11 02:42:27;;;;;;;17.67;16.07;;;15.80;99.90;;;;;;5010737;28;20462;-72
2021/06/11 02:44:54;;;;;;;19.60;18.00;;;15.70;99.90;;;;;;5011042;28;20175;-73
2021/06/11 02:47:36;;;;;;;17.30;15.90;;;15.60;99.90;;;;;;5009078;28;20422;-72
2021/06/11 02:50:07;;;;;;;17.87;16.33;;;15.60;99.90;;;;;;5011068;28;20509;-72
2021/06/11 02:52:34;;;;;;;17.97;16.37;;;15.60;99.90;;;;;;5011114;28;20437;-72
2021/06/11 02:55:04;;;;;;;19.30;17.70;;;15.70;99.90;;;;;;5010955;28;20422;-71
2021/06/11 02:57:47;;;;;;;18.40;16.80;;;15.70;99.90;;;;;;5010149;28;20425;-71
2021/06/11 03:00:13;;;;;;;17.37;15.87;;;15.70;99.90;;;;;;5010857;28;20488;-71
2021/06/11 03:02:52;;;;;;;18.60;16.60;;;15.60;99.90;;;;;;5011059;28;20476;-72
2021/06/11 03:05:20;;;;;;;19.67;17.93;;;15.60;99.90;;;;;;5010963;28;20419;-72
2021/06/11 03:07:47;;;;;;;18.37;16.77;;;15.50;99.90;;;;;;5010005;28;20414;-72
2021/06/11 03:10:14;;;;;;;17.47;15.93;;;15.50;99.90;;;;;;5010607;28;20422;-72
2021/06/11 03:12:41;;;;;;;15.73;14.33;;;15.50;99.90;;;;;;5010872;28;20430;-72
2021/06/11 03:15:08;;;;;;;17.93;16.33;;;15.50;99.90;;;;;;5010818;28;20426;-72
2021/06/11 03:17:45;;;;;;;20.00;18.10;;;15.50;99.90;;;;;;5010037;28;20859;-72
2021/06/11 03:20:14;;;;;;;18.13;16.50;;;15.50;99.90;;;;;;4990956;28;20511;-73
2021/06/11 03:22:48;;;;;;;17.13;15.70;;;15.40;99.90;;;;;;4991453;28;20506;-72
2021/06/11 03:25:24;;;;;;;16.83;15.30;;;15.30;99.90;;;;;;5006353;28;20430;-72
2021/06/11 03:27:54;;;;;;;16.67;15.20;;;15.30;99.90;;;;;;4990745;28;20450;-73
2021/06/11 03:30:22;;;;;;;18.77;17.17;;;15.40;99.90;;;;;;4991024;28;20419;-72
2021/06/11 03:33:02;;;;;;;17.63;16.13;;;15.30;99.90;;;;;;4990910;28;20419;-72
2021/06/11 03:35:39;;;;;;;17.73;16.30;;;15.30;99.90;;;;;;4990946;28;20430;-72
2021/06/11 03:38:10;;;;;;;18.30;16.63;;;15.20;99.90;;;;;;4990226;28;20423;-72
2021/06/11 03:40:40;;;;;;;17.40;15.60;;;15.30;99.90;;;;;;4991425;28;20569;-73
2021/06/11 03:43:08;;;;;;;18.00;16.30;;;15.30;99.90;;;;;;4993264;28;20936;-73
2021/06/11 03:45:34;;;;;;;19.47;17.77;;;15.30;99.90;;;;;;4994464;28;20433;-73
2021/06/11 03:48:01;;;;;;;20.03;18.23;;;15.30;99.90;;;;;;4994008;28;20418;-72
2021/06/11 03:50:28;;;;;;;20.00;18.10;;;15.30;99.90;;;;;;4994206;28;20172;-72
2021/06/11 03:52:59;;;;;;;19.33;17.43;;;15.30;99.90;;;;;;4994372;28;20421;-72
2021/06/11 03:55:27;;;;;;;19.40;17.67;;;15.40;99.90;;;;;;4994543;28;20562;-72
2021/06/11 03:58:05;;;;;;;19.63;17.90;;;15.40;99.90;;;;;;4993645;28;20429;-72
2021/06/11 04:00:33;;;;;;;21.47;19.27;;;15.40;99.90;;;;;;4994126;28;21186;-72
2021/06/11 04:03:00;;;;;;;20.53;18.43;;;15.30;99.90;;;;;;4994405;28;20423;-72
2021/06/11 04:05:26;;;;;;;22.70;20.63;;;15.40;99.90;;;;;;4994149;28;20447;-72
2021/06/11 04:07:57;;;;;;;21.77;19.90;;;15.30;99.90;;;;;;4993418;28;20517;-72
2021/06/11 04:10:28;;;;;;;21.23;19.27;;;15.40;99.90;;;;;;4993809;28;20650;-72
2021/06/11 04:12:56;;;;;;;21.10;19.07;;;15.40;99.90;;;;;;4994548;28;20947;-70
2021/06/11 04:15:26;;;;;;;20.27;18.30;;;15.50;99.90;;;;;;4995040;28;20488;-72
2021/06/11 04:17:59;;;;;;;23.80;21.60;;;15.50;99.90;;;;;;4996006;28;20419;-72
2021/06/11 04:20:27;;;;;;;22.00;19.90;;;15.60;99.90;;;;;;5014521;28;20456;-72
2021/06/11 04:22:56;;;;;;;21.77;19.63;;;15.70;99.90;;;;;;5014197;28;20763;-71
2021/06/11 04:25:29;;;;;;;21.60;19.63;;;15.80;99.90;;;;;;5014257;28;20456;-71
2021/06/11 04:27:56;;;;;;;20.43;18.53;;;15.90;99.90;;;;;;5013597;28;20481;-72
2021/06/11 04:30:22;;;;;;;20.70;18.83;;;15.90;99.90;;;;;;5013646;28;20440;-70
2021/06/11 04:32:48;;;;;;;19.90;18.23;;;16.10;99.90;;;;;;5027969;28;20440;-73
2021/06/11 04:35:14;;;;;;;20.47;18.67;;;16.10;99.90;;;;;;5023779;28;20521;-71
2021/06/11 04:37:39;;;;;;;20.20;18.23;;;16.20;99.90;;;;;;5015452;28;20418;-71
2021/06/11 04:40:06;;;;;;;19.90;18.10;;;16.20;99.90;;;;;;5013005;28;20215;-71
2021/06/11 04:42:33;;;;;;;19.60;17.87;;;16.30;99.90;;;;;;5013081;28;20572;-71
2021/06/11 04:45:00;;;;;;;20.33;16.60;;;16.30;99.90;;;;;;5012940;28;20414;-72
2021/06/11 04:47:27;;;;;;;20.13;18.37;;;16.50;99.90;;;;;;5012468;28;20424;-71
2021/06/11 04:49:53;;;;;;;18.80;17.10;;;16.60;99.90;;;;;;5012927;28;20520;-71
2021/06/11 04:52:19;;;;;;;18.20;16.30;;;16.70;99.90;;;;;;5012406;28;20456;-71
2021/06/11 04:54:44;;;;;;;19.77;18.07;;;16.90;99.90;;;;;;5012770;28;20640;-71
2021/06/11 04:57:10;;;;;;;20.43;18.63;;;16.90;99.90;;;;;;5012664;28;20528;-71
2021/06/11 04:59:35;;;;;;;19.53;17.70;;;16.80;99.90;;;;;;5012382;28;20222;-71
2021/06/11 05:02:01;;;;;;;20.30;18.37;;;16.80;99.90;;;;;;5012654;28;20570;-71
2021/06/11 05:04:26;;;;;;;20.43;18.53;;;16.90;99.90;;;;;;5012458;28;20175;-71
2021/06/11 05:06:52;;;;;;;19.37;17.47;;;16.90;99.90;;;;;;5012622;28;20221;-71
2021/06/11 05:09:18;;;;;;;18.07;16.37;;;17.00;99.90;;;;;;5012081;28;20327;-70
2021/06/11 05:11:43;;;;;;;18.40;16.50;;;17.10;99.90;;;;;;5012555;28;20971;-72
2021/06/11 05:14:12;;;;;;;19.40;17.10;;;17.10;99.90;;;;;;5012327;28;20559;-71
2021/06/11 05:16:37;;;;;;;20.30;18.13;;;17.20;99.90;;;;;;5012447;28;20206;-72
2021/06/11 05:19:03;;;;;;;17.53;15.97;;;17.40;99.90;;;;;;5000050;28;20462;-71
2021/06/11 05:21:29;;;;;;;18.03;16.27;;;17.50;99.90;;;;;;4992545;28;20589;-72
2021/06/11 05:23:54;;;;;;;17.63;16.03;;;17.60;99.90;;;;;;4992715;28;20222;-71
2021/06/11 05:26:20;;;;;;;17.73;16.23;;;17.70;99.90;;;;;;4992688;28;20552;-71
2021/06/11 05:28:45;;;;;;;17.40;15.77;;;17.70;99.90;;;;;;4990558;28;20184;-71
2021/06/11 05:31:11;;;;;;;16.97;14.20;;;17.90;99.90;;;;;;4992502;28;20210;-71
2021/06/11 05:33:36;;;;;;;17.27;15.67;;;17.90;99.90;;;;;;4992628;28;20175;-71
2021/06/11 05:36:02;;;;;;;17.00;15.37;;;18.00;99.90;;;;;;4992561;28;20269;-71
2021/06/11 05:38:28;;;;;;;16.33;14.87;;;18.00;99.90;;;;;;4991804;28;20653;-72
2021/06/11 05:40:54;;;;;;;16.63;15.20;;;18.20;99.90;;;;;;5014659;23;20237;-74
2021/06/11 05:43:20;;;;;;;16.80;14.43;;;18.40;99.90;;;;;;4992584;28;20172;-73
2021/06/11 05:45:45;;;;;;;15.90;14.57;;;18.50;99.90;;;;;;4992322;28;20430;-74
2021/06/11 05:48:11;;;;;;;16.10;14.47;;;18.60;99.90;;;;;;4991514;28;20171;-74
2021/06/11 05:50:37;;;;;;;16.30;14.80;;;18.70;99.90;;;;;;4991938;28;20179;-74
2021/06/11 05:53:03;;;;;;;16.37;14.97;;;18.90;99.90;;;;;;4992332;28;20163;-74
2021/06/11 05:55:29;;;;;;;15.23;13.83;;;19.20;99.90;;;;;;4990097;28;20429;-74
2021/06/11 05:57:55;;;;;;;16.97;15.30;;;19.40;99.90;;;;;;4979763;28;20216;-74
2021/06/11 06:00:21;;;;;;;15.93;14.50;;;19.50;99.90;;;;;;4982863;28;20224;-74
2021/06/11 06:02:47;;;;;;;15.47;14.07;;;19.50;99.90;;;;;;4974948;28;20275;-74
2021/06/11 06:05:13;;;;;;;15.13;13.80;;;19.50;99.90;;;;;;4971933;28;20511;-74
2021/06/11 06:07:39;;;;;;;16.27;14.43;;;19.50;99.90;;;;;;4971973;28;20219;-75
2021/06/11 06:10:06;;;;;;;16.27;14.87;;;19.50;99.90;;;;;;4966822;28;20439;-72
2021/06/11 06:12:32;;;;;;;14.50;13.40;;;19.60;99.90;;;;;;4977024;28;20200;-70
2021/06/11 06:14:58;;;;;;;15.23;13.77;;;19.80;99.90;;;;;;4991680;28;20411;-70
2021/06/11 06:17:31;;;;;;;15.80;14.27;;;20.00;99.90;;;;;;4990837;28;20167;-70
2021/06/11 06:19:56;;;;;;;16.07;14.67;;;20.30;99.90;;;;;;4987498;28;20552;-69
2021/06/11 06:22:22;;;;;;;15.27;14.07;;;20.40;99.90;;;;;;4991523;28;21050;-70
2021/06/11 06:24:47;;;;;;;14.00;12.70;;;20.70;99.90;;;;;;4990072;28;20199;-70
2021/06/11 06:27:13;;;;;;;14.23;13.03;;;20.80;99.90;;;;;;4991190;28;20206;-71
2021/06/11 06:29:38;;;;;;;13.20;12.00;;;21.00;99.90;;;;;;4989034;28;20182;-72
2021/06/11 06:32:04;;;;;;;14.67;13.37;;;21.30;99.90;;;;;;4991606;28;20858;-70
2021/06/11 06:34:31;;;;;;;13.70;12.60;;;21.40;99.90;;;;;;4991611;28;20180;-70
2021/06/11 06:36:56;;;;;;;14.33;13.03;;;21.50;99.90;;;;;;4991600;28;20306;-70
2021/06/11 06:39:22;;;;;;;14.20;12.90;;;21.80;99.90;;;;;;4988107;28;20427;-70
2021/06/11 06:41:47;;;;;;;13.47;12.30;;;22.00;99.90;;;;;;5003258;28;20207;-71
2021/06/11 06:44:13;;;;;;;14.50;13.40;;;22.30;99.90;;;;;;4992266;28;20179;-72
2021/06/11 06:46:39;;;;;;;14.97;13.67;;;22.50;99.90;;;;;;5004094;28;20175;-70
2021/06/11 06:49:06;;;;;;;13.93;12.77;;;22.70;99.90;;;;;;4997817;28;20549;-70
2021/06/11 06:51:33;;;;;;;22.17;20.00;;;23.00;99.90;;;;;;4991307;28;20692;-71
2021/06/11 06:53:59;;;;;;;13.73;12.63;;;23.30;99.90;;;;;;5003234;28;21012;-72
2021/06/11 06:56:26;;;;;;;13.80;12.50;;;23.50;99.90;;;;;;4991252;28;20427;-72
2021/06/11 06:58:52;;;;;;;12.70;11.60;;;23.70;99.90;;;;;;5006146;28;20782;-73
2021/06/11 07:01:18;;;;;;;12.63;11.63;;;23.80;99.90;;;;;;4996525;28;20474;-74
2021/06/11 07:03:43;;;;;;;11.83;10.73;;;23.90;99.90;;;;;;5010788;28;20418;-70
2021/06/11 07:06:09;;;;;;;12.80;11.80;;;24.00;99.90;;;;;;5010209;28;20441;-71
2021/06/11 07:08:34;;;;;;;15.27;13.87;;;24.10;99.90;;;;;;5010030;28;20190;-71
2021/06/11 07:11:01;;;;;;;12.67;11.67;;;24.20;99.90;;;;;;5010865;28;20256;-71
2021/06/11 07:13:31;;;;;;;12.73;11.83;;;24.20;99.90;;;;;;5010889;28;20197;-71
2021/06/11 07:15:57;;;;;;;12.37;11.47;;;24.40;99.90;;;;;;5013299;28;20418;-72
2021/06/11 07:18:22;;;;;;;12.40;11.50;;;24.20;99.90;;;;;;5007670;28;20454;-73
2021/06/11 07:20:48;;;;;;;13.30;12.10;;;24.40;99.90;;;;;;4994679;28;20227;-73
2021/06/11 07:23:13;;;;;;;12.00;11.10;;;24.70;99.90;;;;;;4987889;28;20196;-73
2021/06/11 07:25:39;;;;;;;12.17;11.10;;;24.90;99.90;;;;;;4993974;28;20739;-73
2021/06/11 07:28:05;;;;;;;12.43;11.33;;;25.10;99.90;;;;;;4992340;28;20229;-69
2021/06/11 07:30:30;;;;;;;17.33;15.73;;;25.40;99.90;;;;;;4993320;28;20254;-71
2021/06/11 07:32:56;;;;;;;12.40;11.37;;;25.60;99.90;;;;;;4994211;28;20615;-71
2021/06/11 07:35:21;;;;;;;12.30;11.27;;;25.80;99.90;;;;;;4993035;28;20180;-69
2021/06/11 07:37:47;;;;;;;10.90;9.80;;;25.70;99.90;;;;;;4992594;28;20171;-72
2021/06/11 07:40:14;;;;;;;13.13;11.40;;;25.50;99.90;;;;;;4994009;28;20561;-72
2021/06/11 07:42:40;;;;;;;12.00;11.00;;;25.30;99.90;;;;;;4995594;28;20262;-70
2021/06/11 07:45:07;;;;;;;12.63;11.70;;;25.40;99.90;;;;;;4993935;28;20431;-71
2021/06/11 07:47:34;;;;;;;10.73;9.83;;;25.60;99.90;;;;;;4993220;28;20441;-70
2021/06/11 07:49:59;;;;;;;12.30;11.40;;;25.90;99.90;;;;;;4993038;28;20801;-70
2021/06/11 07:52:25;;;;;;;12.67;11.40;;;26.10;99.90;;;;;;4993650;28;20453;-69
2021/06/11 07:54:50;;;;;;;12.70;11.80;;;26.30;99.90;;;;;;4993971;28;20175;-71
2021/06/11 07:57:16;;;;;;;12.20;11.37;;;26.50;99.90;;;;;;4992133;28;20187;-70
2021/06/11 07:59:42;;;;;;;13.20;12.10;;;26.50;99.90;;;;;;4993808;28;20235;-71
2021/06/11 08:02:08;;;;;;;13.10;12.20;;;26.50;99.90;;;;;;4994161;28;20664;-72
2021/06/11 08:04:33;;;;;;;12.83;11.60;;;26.60;99.90;;;;;;4993998;28;20510;-72
2021/06/11 08:06:59;;;;;;;12.57;11.40;;;26.80;99.90;;;;;;4993833;28;20645;-72
2021/06/11 08:09:29;;;;;;;11.70;10.73;;;27.00;99.90;;;;;;4993203;28;20176;-72
2021/06/11 08:11:55;;;;;;;11.00;10.30;;;27.30;99.90;;;;;;4993744;28;20179;-70
2021/06/11 08:14:21;;;;;;;12.17;11.17;;;27.60;99.90;;;;;;4993530;28;20415;-72
2021/06/11 08:16:46;;;;;;;13.57;12.50;;;27.70;99.90;;;;;;4993683;28;20446;-72
2021/06/11 08:19:11;;;;;;;12.23;11.33;;;27.90;99.90;;;;;;4992936;28;20215;-72
2021/06/11 08:21:37;;;;;;;13.17;12.07;;;27.80;99.90;;;;;;4993586;28;20234;-72
2021/06/11 08:24:03;;;;;;;13.50;12.50;;;27.80;99.90;;;;;;4993721;28;20258;-72
2021/06/11 08:26:28;;;;;;;13.07;11.97;;;27.60;99.90;;;;;;4992829;28;20679;-72
2021/06/11 08:28:54;;;;;;;13.43;12.33;;;28.00;99.90;;;;;;4992879;28;20459;-72
2021/06/11 08:31:20;;;;;;;12.30;11.30;;;28.00;99.90;;;;;;4993673;28;20195;-72
2021/06/11 08:33:46;;;;;;;17.67;13.23;;;28.20;99.90;;;;;;4993898;28;20183;-72
2021/06/11 08:36:12;;;;;;;12.10;10.97;;;28.40;99.90;;;;;;4993386;28;20164;-72
2021/06/11 08:38:38;;;;;;;13.23;12.23;;;28.50;99.90;;;;;;4992674;28;20502;-72
2021/06/11 08:41:07;;;;;;;12.70;11.80;;;28.40;99.90;;;;;;4993087;28;20700;-72
2021/06/11 08:43:32;;;;;;;11.67;10.77;;;28.40;99.90;;;;;;4993292;28;20195;-72
2021/06/11 08:45:58;;;;;;;11.73;10.83;;;28.50;99.90;;;;;;4993226;28;20450;-71
2021/06/11 08:48:24;;;;;;;13.70;12.60;;;28.70;99.90;;;;;;4992556;28;20175;-71
2021/06/11 08:50:50;;;;;;;12.83;11.87;;;28.70;99.90;;;;;;4993150;28;20488;-72
2021/06/11 08:53:17;;;;;;;13.53;12.33;;;28.40;99.90;;;;;;4993107;28;20266;-72
2021/06/11 08:55:43;;;;;;;14.37;12.83;;;28.50;99.90;;;;;;4993040;28;20426;-72
2021/06/11 08:58:08;;;;;;;13.17;11.87;;;28.70;99.90;;;;;;4992133;28;20478;-71
2021/06/11 09:00:34;;;;;;;13.53;12.60;;;29.00;99.70;;;;;;4992716;28;20265;-71
2021/06/11 09:03:10;;;;;;;12.67;11.77;;;29.40;99.00;;;;;;4992913;28;20179;-73
2021/06/11 09:05:41;;;;;;;13.17;12.27;;;28.90;99.20;;;;;;4993095;28;20543;-73
2021/06/11 09:08:24;;;;;;;13.70;12.70;;;28.90;98.60;;;;;;4990992;28;20435;-72
2021/06/11 09:10:52;;;;;;;12.63;11.43;;;29.00;98.80;;;;;;4982815;28;20435;-72
2021/06/11 09:13:26;;;;;;;12.37;11.57;;;29.10;98.60;;;;;;4973229;28;20427;-72
2021/06/11 09:16:04;;;;;;;13.20;12.23;;;29.30;98.30;;;;;;4973168;28;20462;-72
2021/06/11 09:18:30;;;;;;;13.87;12.97;;;29.70;97.40;;;;;;4979571;28;20794;-70
2021/06/11 09:20:55;;;;;;;14.40;13.40;;;29.90;96.10;;;;;;4991851;28;20478;-72
2021/06/11 09:23:21;;;;;;;13.43;12.33;;;29.30;96.40;;;;;;4992097;28;20176;-72
2021/06/11 09:25:49;;;;;;;12.80;11.70;;;29.70;95.90;;;;;;4992233;28;20187;-72
2021/06/11 09:28:23;;;;;;;12.30;11.23;;;30.00;95.10;;;;;;4987061;28;20173;-70
2021/06/11 09:30:55;;;;;;;13.17;12.13;;;30.40;94.50;;;;;;4972734;28;20517;-70
2021/06/11 09:33:23;;;;;;;15.10;14.10;;;30.60;92.90;;;;;;4972894;28;20917;-70
2021/06/11 09:35:55;;;;;;;13.47;12.47;;;30.80;92.70;;;;;;4972885;28;20424;-69
2021/06/11 09:38:44;;;;;;;13.73;12.83;;;30.60;92.80;;;;;;4971431;28;20499;-69
2021/06/11 09:41:11;;;;;;;14.00;13.10;;;30.30;92.40;;;;;;4972624;28;20478;-72
2021/06/11 09:43:56;;;;;;;14.37;13.27;;;30.20;92.30;;;;;;4972599;28;20431;-70
2021/06/11 09:46:22;;;;;;;13.13;12.13;;;30.60;92.10;;;;;;4972760;28;20419;-71
2021/06/11 09:48:50;;;;;;;13.70;12.70;;;30.50;92.20;;;;;;4971768;28;21072;-71
2021/06/11 09:51:17;;;;;;;13.77;12.77;;;30.00;92.20;;;;;;4972551;28;20661;-69
2021/06/11 09:53:42;;;;;;;13.57;12.47;;;30.40;92.00;;;;;;4972433;28;20439;-69
2021/06/11 09:56:19;;;;;;;14.37;13.47;;;30.60;91.50;;;;;;4972418;28;20416;-70
2021/06/11 09:58:44;;;;;;;13.83;12.80;;;30.90;90.10;;;;;;4971503;28;20168;-70
2021/06/11 10:01:12;;;;;;;14.20;13.20;;;31.00;90.40;;;;;;4972155;28;20545;-69
2021/06/11 10:03:39;;;;;;;17.03;15.73;;;30.90;90.90;;;;;;4972587;28;20192;-69
2021/06/11 10:06:07;;;;;;;14.77;13.67;;;31.30;90.60;;;;;;4972450;28;20412;-69
2021/06/11 10:08:34;;;;;;;15.73;14.73;;;31.50;90.80;;;;;;4971538;28;20452;-69
2021/06/11 10:11:03;;;;;;;13.70;12.80;;;30.80;88.50;;;;;;4972042;28;20463;-69
2021/06/11 10:13:30;;;;;;;13.90;12.90;;;30.80;90.00;;;;;;4972236;28;20483;-69
2021/06/11 10:15:58;;;;;;;14.73;13.63;;;30.60;88.00;;;;;;4972324;28;20450;-68
2021/06/11 10:18:25;;;;;;;13.70;12.60;;;30.80;86.30;;;;;;4977527;28;20438;-69
2021/06/11 10:20:51;;;;;;;13.77;12.80;;;31.50;85.50;;;;;;4991127;28;20545;-69
2021/06/11 10:23:20;;;;;;;13.70;12.80;;;32.10;83.80;;;;;;4991948;28;20415;-69
2021/06/11 10:25:51;;;;;;;14.63;13.57;;;32.10;84.20;;;;;;4991187;28;20978;-69
2021/06/11 10:28:40;;;;;;;14.23;13.37;;;32.20;80.70;;;;;;4990783;28;20450;-69
2021/06/11 10:31:08;;;;;;;13.10;12.00;;;32.50;76.60;;;;;;4991467;28;20840;-69
2021/06/11 10:33:51;;;;;;;12.77;11.97;;;32.70;77.80;;;;;;4991661;28;20430;-69
2021/06/11 10:36:29;;;;;;;13.37;12.17;;;32.70;74.80;;;;;;4991144;28;20415;-70
2021/06/11 10:39:00;;;;;;;14.83;13.67;;;32.90;73.20;;;;;;4990769;28;20661;-69
2021/06/11 10:41:26;;;;;;;11.50;10.70;;;32.80;74.60;;;;;;4990997;28;20477;-69
2021/06/11 10:43:53;;;;;;;12.60;11.80;;;32.90;72.70;;;;;;4991200;28;20446;-69
2021/06/11 10:46:31;;;;;;;11.50;10.70;;;33.10;70.50;;;;;;4975356;28;20435;-69
2021/06/11 10:48:57;;;;;;;10.97;10.27;;;34.90;69.20;;;;;;4970947;28;20455;-67
2021/06/11 10:51:38;;;;;;;12.33;11.63;;;36.20;65.00;;;;;;4971569;28;20482;-68
2021/06/11 10:54:16;;;;;;;11.13;10.43;;;37.60;59.00;;;;;;4971700;28;20183;-69
2021/06/11 10:56:57;;;;;;;12.07;11.27;;;37.80;57.70;;;;;;4971639;28;20416;-70
2021/06/11 10:59:36;;;;;;;12.77;11.97;;;35.00;59.60;;;;;;4978723;28;20426;-67
2021/06/11 11:02:03;;;;;;;12.70;11.73;;;33.90;62.50;;;;;;4979339;28;20454;-69
2021/06/11 11:04:33;;;;;;;12.27;11.57;;;33.10;64.80;;;;;;4990566;28;20438;-71
2021/06/11 11:07:29;;;;;;;12.60;11.70;;;32.50;67.80;;;;;;4979055;28;20423;-69
2021/06/11 11:09:55;;;;;;;12.87;11.90;;;32.50;67.20;;;;;;4967154;28;20427;-71
2021/06/11 11:12:28;;;;;;;14.00;13.00;;;32.50;64.60;;;;;;4976452;28;20963;-69
2021/06/11 11:14:54;;;;;;;12.30;11.47;;;32.30;64.40;;;;;;4997960;28;20433;-69
2021/06/11 11:17:20;;;;;;;12.10;11.30;;;32.10;65.70;;;;;;5009957;28;20422;-67
2021/06/11 11:19:58;;;;;;;13.40;12.57;;;32.40;66.20;;;;;;4992665;28;20478;-69
2021/06/11 11:22:28;;;;;;;14.10;13.00;;;31.80;68.10;;;;;;4990922;28;20448;-70
2021/06/11 11:24:54;;;;;;;13.20;12.20;;;32.00;67.80;;;;;;4990968;28;20414;-69
2021/06/11 11:27:20;;;;;;;15.60;14.30;;;33.00;67.60;;;;;;4990356;28;20453;-69
2021/06/11 11:29:46;;;;;;;14.03;12.97;;;33.50;65.00;;;;;;4990863;28;20429;-73
2021/06/11 11:32:12;;;;;;;14.20;13.27;;;33.60;64.80;;;;;;4990743;28;20862;-72
2021/06/11 11:34:37;;;;;;;13.33;12.33;;;33.80;63.40;;;;;;4990647;28;20190;-69
2021/06/11 11:37:03;;;;;;;14.27;13.27;;;34.30;62.20;;;;;;4991939;28;20229;-70
2021/06/11 11:39:29;;;;;;;14.57;13.67;;;33.80;61.10;;;;;;5000602;28;20182;-69
2021/06/11 11:41:56;;;;;;;15.60;14.47;;;33.90;61.30;;;;;;4990550;28;20211;-71
2021/06/11 11:44:23;;;;;;;13.60;12.70;;;34.30;60.90;;;;;;5006064;28;20172;-70
2021/06/11 11:46:49;;;;;;;14.43;13.43;;;34.70;59.90;;;;;;5007077;28;20421;-70
2021/06/11 11:49:15;;;;;;;14.50;13.50;;;36.40;58.20;;;;;;5009611;28;20501;-70
2021/06/11 11:51:41;;;;;;;13.33;12.40;;;37.10;57.00;;;;;;5009934;28;20533;-70
2021/06/11 11:54:07;;;;;;;12.67;11.87;;;37.80;52.70;;;;;;5010042;28;20509;-70
2021/06/11 11:56:33;;;;;;;12.93;12.13;;;37.10;52.60;;;;;;4990540;28;20180;-70
2021/06/11 11:58:58;;;;;;;12.97;12.07;;;38.10;51.30;;;;;;4990089;28;20179;-70
2021/06/11 12:01:24;;;;;;;12.20;11.10;;;39.40;57.90;;;;;;4990679;28;20590;-69
2021/06/11 12:03:50;;;;;;;11.93;11.13;;;39.10;57.90;;;;;;4993963;28;20171;-70
2021/06/11 12:06:15;;;;;;;10.47;9.83;;;37.90;55.10;;;;;;4994112;28;20634;-70
2021/06/11 12:08:41;;;;;;;10.80;10.20;;;36.60;54.90;;;;;;4992995;28;20179;-69
2021/06/11 12:11:06;;;;;;;10.00;9.43;;;36.00;53.70;;;;;;4993829;28;20199;-69
2021/06/11 12:13:33;;;;;;;10.93;10.13;;;34.60;54.40;;;;;;4993766;28;20180;-69
2021/06/11 12:16:02;;;;;;;11.33;10.63;;;34.90;56.00;;;;;;4993854;28;20195;-69
2021/06/11 12:18:27;;;;;;;11.00;10.30;;;36.20;55.20;;;;;;4993624;28;20782;-70
2021/06/11 12:20:53;;;;;;;11.47;10.67;;;36.70;54.20;;;;;;4993687;28;20454;-70
2021/06/11 12:23:18;;;;;;;11.10;10.20;;;38.20;53.90;;;;;;4993574;28;20211;-69
2021/06/11 12:25:44;;;;;;;10.93;9.87;;;39.00;52.30;;;;;;4993494;28;20195;-69
2021/06/11 12:28:09;;;;;;;10.10;9.40;;;39.10;51.20;;;;;;4993077;28;20172;-70
2021/06/11 12:30:35;;;;;;;8.53;8.03;;;40.90;49.50;;;;;;4993181;28;20199;-69